createdAt,value
2018-04-25T00:00:45.276Z,99361.55
2018-04-25T00:03:13.716Z,99358.45
2018-04-25T00:05:42.185Z,99351.61
2018-04-25T00:08:10.616Z,99346.70
2018-04-25T00:10:39.043Z,99343.64
2018-04-25T00:13:07.544Z,99341.14
2018-04-25T00:15:36.004Z,99338.06
2018-04-25T00:18:04.445Z,99340.22
2018-04-25T00:20:32.946Z,99334.91
2018-04-25T00:23:01.368Z,99331.83
2018-04-25T00:25:29.816Z,99328.55
2018-04-25T00:27:58.300Z,99321.63
2018-04-25T00:30:26.722Z,99320.08
2018-04-25T00:32:55.138Z,99310.15
2018-04-25T00:35:23.619Z,99302.78
2018-04-25T00:37:52.044Z,99295.72
2018-04-25T00:40:20.461Z,99291.31
2018-04-25T00:42:48.964Z,99297.07
2018-04-25T00:45:17.420Z,99285.11
2018-04-25T00:47:45.873Z,99282.85
2018-04-25T00:50:14.352Z,99280.91
2018-04-25T00:52:42.812Z,99281.91
2018-04-25T00:55:11.264Z,99278.83
2018-04-25T00:57:39.772Z,99276.73
2018-04-25T01:00:08.227Z,99275.60
2018-04-25T01:02:36.677Z,99270.67
2018-04-25T01:05:05.172Z,99250.56
2018-04-25T01:07:33.616Z,99243.72
2018-04-25T01:10:02.073Z,99242.12
2018-04-25T01:12:30.576Z,99235.80
2018-04-25T01:14:59.008Z,99225.52
2018-04-25T01:17:27.477Z,99226.20
2018-04-25T01:19:55.981Z,99211.52
2018-04-25T01:22:24.436Z,99215.86
2018-04-25T01:24:57.248Z,99209.55
2018-04-25T01:27:25.704Z,99202.02
2018-04-25T01:29:54.161Z,99200.15
2018-04-25T01:32:22.672Z,99194.16
2018-04-25T01:34:54.633Z,99190.23
2018-04-25T01:37:32.692Z,99192.59
2018-04-25T01:40:01.145Z,99192.34
2018-04-25T01:45:29.395Z,99181.76
2018-04-25T01:48:10.439Z,99175.58
2018-04-25T01:50:38.896Z,99180.66
2018-04-25T01:53:19.205Z,99169.73
2018-04-25T01:55:59.352Z,99166.70
2018-04-25T01:58:39.538Z,99167.60
2018-04-25T02:01:19.612Z,99159.98
2018-04-25T02:03:54.621Z,99156.66
2018-04-25T02:06:23.045Z,99160.43
2018-04-25T02:08:51.557Z,99145.88
2018-04-25T02:11:19.965Z,99138.03
2018-04-25T02:13:48.380Z,99132.87
2018-04-25T02:16:16.800Z,99140.44
2018-04-25T02:18:45.252Z,99140.67
2018-04-25T02:21:13.680Z,99127.61
2018-04-25T02:23:42.099Z,99127.99
2018-04-25T02:26:10.548Z,99119.57
2018-04-25T02:28:38.964Z,99117.98
2018-04-25T02:31:07.384Z,99117.25
2018-04-25T02:33:35.860Z,99109.68
2018-04-25T02:36:04.284Z,99094.15
2018-04-25T02:38:32.730Z,99090.49
2018-04-25T02:41:01.202Z,99081.05
2018-04-25T02:43:29.616Z,99076.58
2018-04-25T02:45:58.037Z,99076.42
2018-04-25T02:48:26.488Z,99079.55
2018-04-25T02:50:54.913Z,99075.80
2018-04-25T02:53:23.357Z,99069.17
2018-04-25T02:55:51.820Z,99066.69
2018-04-25T02:58:20.248Z,99075.19
2018-04-25T03:00:48.915Z,99067.42
2018-04-25T03:03:17.397Z,99058.23
2018-04-25T03:05:45.821Z,99059.08
2018-04-25T03:08:14.252Z,99051.55
2018-04-25T03:10:42.716Z,99043.32
2018-04-25T03:13:11.141Z,99050.09
2018-04-25T03:15:39.572Z,99047.30
2018-04-25T03:18:08.039Z,99045.83
2018-04-25T03:20:36.456Z,99043.06
2018-04-25T03:23:04.878Z,99035.73
2018-04-25T03:25:33.346Z,99032.91
2018-04-25T03:28:01.760Z,99028.09
2018-04-25T03:30:30.184Z,99027.97
2018-04-25T03:32:58.644Z,99026.36
2018-04-25T03:35:27.065Z,99015.09
2018-04-25T03:37:55.485Z,99009.95
2018-04-25T03:40:23.944Z,99014.51
2018-04-25T03:42:52.370Z,99010.91
2018-04-25T03:45:20.820Z,99002.71
2018-04-25T03:47:49.287Z,99008.20
2018-04-25T03:50:17.712Z,99008.11
2018-04-25T03:52:46.143Z,99008.33
2018-04-25T03:55:14.623Z,99008.33
2018-04-25T03:57:43.036Z,99006.06
2018-04-25T04:00:11.472Z,98995.92
2018-04-25T04:02:39.948Z,98996.58
2018-04-25T04:05:08.376Z,98994.08
2018-04-25T04:07:36.808Z,98992.53
2018-04-25T04:10:05.268Z,98995.83
2018-04-25T04:12:33.684Z,98994.37
2018-04-25T04:15:02.108Z,98992.64
2018-04-25T04:17:30.567Z,98987.67
2018-04-25T04:19:58.990Z,98979.65
2018-04-25T04:22:27.489Z,98978.61
2018-04-25T04:24:55.990Z,98973.97
2018-04-25T04:27:24.384Z,98971.48
2018-04-25T04:29:52.807Z,98968.09
2018-04-25T04:32:21.305Z,98974.08
2018-04-25T04:34:49.748Z,98971.27
2018-04-25T04:37:18.166Z,98966.08
2018-04-25T04:39:46.628Z,98973.76
2018-04-25T04:42:15.064Z,98978.72
2018-04-25T04:44:43.493Z,98975.10
2018-04-25T04:47:11.956Z,98977.27
2018-04-25T04:49:40.388Z,98982.87
2018-04-25T04:52:08.811Z,98991.86
2018-04-25T04:54:37.272Z,98985.45
2018-04-25T04:57:05.730Z,98987.75
2018-04-25T04:59:34.148Z,98992.70
2018-04-25T05:02:02.612Z,98988.78
2018-04-25T05:04:31.068Z,98981.86
2018-04-25T05:06:59.508Z,98982.89
2018-04-25T05:09:27.972Z,98982.69
2018-04-25T05:11:56.405Z,98986.93
2018-04-25T05:14:24.826Z,98986.92
2018-04-25T05:16:53.288Z,98987.34
2018-04-25T05:19:21.696Z,98985.08
2018-04-25T05:21:50.107Z,98988.28
2018-04-25T05:24:18.599Z,98986.11
2018-04-25T05:26:46.988Z,98995.32
2018-04-25T05:29:15.408Z,98989.84
2018-04-25T05:31:43.880Z,98995.20
2018-04-25T05:34:12.348Z,98990.97
2018-04-25T05:36:40.748Z,98986.83
2018-04-25T05:39:09.200Z,98988.92
2018-04-25T05:41:37.612Z,98991.61
2018-04-25T05:44:06.029Z,98987.66
2018-04-25T05:46:34.490Z,98986.73
2018-04-25T05:49:02.900Z,98997.20
2018-04-25T05:51:31.340Z,98990.58
2018-04-25T05:53:59.792Z,98984.14
2018-04-25T05:56:28.200Z,98977.33
2018-04-25T05:58:56.609Z,98978.14
2018-04-25T06:01:25.069Z,98987.25
2018-04-25T06:03:53.488Z,98980.94
2018-04-25T06:06:21.903Z,98975.36
2018-04-25T06:08:50.397Z,98985.80
2018-04-25T06:11:18.806Z,98973.49
2018-04-25T06:13:47.241Z,98975.33
2018-04-25T06:16:15.805Z,98975.33
2018-04-25T06:18:44.733Z,98969.61
2018-04-25T06:21:14.027Z,98974.01
2018-04-25T06:23:42.512Z,98977.15
2018-04-25T06:26:10.936Z,98972.58
2018-04-25T06:28:39.360Z,98967.49
2018-04-25T06:31:07.816Z,98970.47
2018-04-25T06:33:36.240Z,98966.38
2018-04-25T06:36:04.667Z,98973.73
2018-04-25T06:38:33.128Z,98968.50
2018-04-25T06:41:01.549Z,98966.53
2018-04-25T06:43:29.971Z,98966.84
2018-04-25T06:45:58.452Z,98969.80
2018-04-25T06:48:26.882Z,98975.23
2018-04-25T06:50:55.299Z,98975.23
2018-04-25T06:53:23.760Z,98974.42
2018-04-25T06:55:52.176Z,98975.05
2018-04-25T06:58:20.596Z,98969.03
2018-04-25T07:00:49.074Z,98966.88
2018-04-25T07:03:17.476Z,98961.38
2018-04-25T07:05:45.896Z,98966.98
2018-04-25T07:08:14.366Z,98960.36
2018-04-25T07:10:42.818Z,98958.23
2018-04-25T07:13:11.239Z,98972.20
2018-04-25T07:15:39.714Z,98945.45
2018-04-25T07:18:08.149Z,98958.89
2018-04-25T07:20:36.589Z,98962.12
2018-04-25T07:23:05.065Z,98964.63
2018-04-25T07:25:33.476Z,98958.30
2018-04-25T07:28:01.885Z,98958.73
2018-04-25T07:30:30.551Z,98953.12
2018-04-25T07:32:58.968Z,98953.62
2018-04-25T07:35:27.462Z,98966.06
2018-04-25T07:37:55.953Z,98962.05
2018-04-25T07:40:24.372Z,98966.09
2018-04-25T07:42:52.801Z,98971.08
2018-04-25T07:45:21.248Z,98970.26
2018-04-25T07:47:49.668Z,98970.59
2018-04-25T07:50:18.084Z,98971.19
2018-04-25T07:52:46.548Z,98966.03
2018-04-25T07:55:14.976Z,98981.24
2018-04-25T07:57:43.459Z,98980.02
2018-04-25T08:00:11.865Z,98986.84
2018-04-25T08:02:40.291Z,98982.52
2018-04-25T08:05:08.708Z,98980.26
2018-04-25T08:07:37.152Z,98978.82
2018-04-25T08:10:05.567Z,98986.30
2018-04-25T08:12:45.904Z,98989.53
2018-04-25T08:15:25.983Z,98999.78
2018-04-25T08:18:06.132Z,99017.05
2018-04-25T08:20:45.268Z,99024.80
2018-04-25T08:23:13.748Z,99033.80
2018-04-25T08:25:42.161Z,99039.46
2018-04-25T08:28:10.578Z,99038.14
2018-04-25T08:30:39.033Z,99049.56
2018-04-25T08:33:07.449Z,99046.39
2018-04-25T08:35:35.864Z,99054.32
2018-04-25T08:38:04.345Z,99059.57
2018-04-25T08:40:32.760Z,99062.45
2018-04-25T08:43:01.168Z,99068.68
2018-04-25T08:45:29.617Z,99057.86
2018-04-25T08:47:58.029Z,99058.13
2018-04-25T08:50:26.452Z,99062.70
2018-04-25T08:52:54.906Z,99064.48
2018-04-25T08:55:23.316Z,99068.77
2018-04-25T08:57:51.724Z,99063.83
2018-04-25T09:00:20.180Z,99073.28
2018-04-25T09:02:48.585Z,99070.42
2018-04-25T09:05:17.019Z,99070.42
2018-04-25T09:07:45.472Z,99064.77
2018-04-25T09:10:13.889Z,99069.52
2018-04-25T09:12:42.296Z,99069.72
2018-04-25T09:15:10.936Z,99075.59
2018-04-25T09:17:39.331Z,99066.22
2018-04-25T09:20:07.732Z,99071.67
2018-04-25T09:22:36.204Z,99074.27
2018-04-25T09:25:04.812Z,99067.82
2018-04-25T09:27:33.248Z,99082.52
2018-04-25T09:30:01.795Z,99086.06
2018-04-25T09:32:30.200Z,99083.22
2018-04-25T09:34:58.605Z,99078.71
2018-04-25T09:37:27.077Z,99095.19
2018-04-25T09:39:55.512Z,99089.92
2018-04-25T09:42:23.925Z,99091.77
2018-04-25T09:44:52.367Z,99094.61
2018-04-25T09:47:20.772Z,99093.09
2018-04-25T09:49:49.212Z,99098.04
2018-04-25T09:52:17.667Z,99091.04
2018-04-25T09:54:46.067Z,99083.59
2018-04-25T09:57:14.478Z,99082.80
2018-04-25T09:59:42.934Z,99084.20
2018-04-25T10:02:16.960Z,99120.48
2018-04-25T10:04:45.408Z,99119.80
2018-04-25T10:07:13.818Z,99123.75
2018-04-25T10:09:42.228Z,99143.05
2018-04-25T10:12:10.702Z,99157.86
2018-04-25T10:14:39.116Z,99163.95
2018-04-25T10:17:07.580Z,99167.39
2018-04-25T10:19:36.016Z,99169.77
2018-04-25T10:22:04.434Z,99175.38
2018-04-25T10:24:32.852Z,99159.93
2018-04-25T10:27:01.308Z,99153.57
2018-04-25T10:29:29.712Z,99153.19
2018-04-25T10:31:58.176Z,99166.52
2018-04-25T10:34:26.613Z,99160.36
2018-04-25T10:36:55.027Z,99158.08
2018-04-25T10:39:23.473Z,99170.84
2018-04-25T10:41:51.984Z,99172.06
2018-04-25T10:44:20.426Z,99168.47
2018-04-25T10:46:48.836Z,99164.05
2018-04-25T10:49:17.283Z,99169.78
2018-04-25T10:51:45.700Z,99171.24
2018-04-25T10:54:14.113Z,99178.53
2018-04-25T10:56:42.561Z,99174.66
2018-04-25T10:59:10.989Z,99186.19
2018-04-25T11:01:39.412Z,99179.66
2018-04-25T11:04:07.855Z,99182.08
2018-04-25T11:06:36.296Z,99178.25
2018-04-25T11:09:04.734Z,99189.19
2018-04-25T11:11:33.186Z,99183.57
2018-04-25T11:14:01.606Z,99189.03
2018-04-25T11:16:30.032Z,99187.70
2018-04-25T11:18:58.488Z,99189.63
2018-04-25T11:21:26.902Z,99196.20
2018-04-25T11:23:55.327Z,99202.06
2018-04-25T11:26:23.792Z,99203.16
2018-04-25T11:28:52.199Z,99220.09
2018-04-25T11:31:20.613Z,99224.18
2018-04-25T11:33:49.080Z,99235.23
2018-04-25T11:36:17.492Z,99239.37
2018-04-25T11:38:45.908Z,99245.67
2018-04-25T11:41:14.429Z,99235.33
2018-04-25T11:43:42.824Z,99234.57
2018-04-25T11:46:11.235Z,99238.02
2018-04-25T11:48:39.700Z,99236.25
2018-04-25T11:51:08.119Z,99240.63
2018-04-25T11:53:36.532Z,99262.88
2018-04-25T11:56:05.006Z,99265.61
2018-04-25T11:58:33.416Z,99263.69
2018-04-25T12:01:01.835Z,99271.41
2018-04-25T12:03:30.280Z,99274.58
2018-04-25T12:05:58.696Z,99279.53
2018-04-25T12:08:27.107Z,99288.91
2018-04-25T12:10:55.572Z,99298.00
2018-04-25T12:13:24.080Z,99292.44
2018-04-25T12:15:52.440Z,99298.36
2018-04-25T12:18:20.889Z,99309.34
2018-04-25T12:20:49.311Z,99311.41
2018-04-25T12:23:17.735Z,99316.91
2018-04-25T12:25:46.201Z,99312.13
2018-04-25T12:28:14.616Z,99324.56
2018-04-25T12:30:43.029Z,99331.20
2018-04-25T12:33:11.481Z,99334.00
2018-04-25T12:35:39.892Z,99354.92
2018-04-25T12:38:08.308Z,99353.08
2018-04-25T12:40:36.763Z,99359.81
2018-04-25T12:43:05.197Z,99361.71
2018-04-25T12:45:33.613Z,99362.13
2018-04-25T12:48:02.074Z,99373.00
2018-04-25T12:50:30.479Z,99372.90
2018-04-25T12:52:58.896Z,99382.56
2018-04-25T12:55:27.359Z,99378.30
2018-04-25T12:57:55.785Z,99380.75
2018-04-25T13:00:24.228Z,99376.84
2018-04-25T13:02:52.704Z,99377.36
2018-04-25T13:05:21.113Z,99391.98
2018-04-25T13:07:49.515Z,99384.31
2018-04-25T13:10:18.005Z,99387.74
2018-04-25T13:12:46.436Z,99392.60
2018-04-25T13:15:14.852Z,99393.77
2018-04-25T13:17:43.304Z,99394.70
2018-04-25T13:20:11.720Z,99398.94
2018-04-25T13:22:40.152Z,99398.22
2018-04-25T13:25:08.612Z,99395.62
2018-04-25T13:27:37.027Z,99400.56
2018-04-25T13:30:05.460Z,99409.27
2018-04-25T13:32:33.914Z,99411.72
2018-04-25T13:35:02.320Z,99413.34
2018-04-25T13:37:30.728Z,99416.42
2018-04-25T13:39:59.184Z,99422.92
2018-04-25T13:42:27.588Z,99425.39
2018-04-25T13:44:56.034Z,99426.06
2018-04-25T13:47:24.473Z,99437.38
2018-04-25T13:49:52.875Z,99429.95
2018-04-25T13:52:21.285Z,99438.16
2018-04-25T13:54:49.728Z,99435.25
2018-04-25T13:57:18.132Z,99435.16
2018-04-25T13:59:46.548Z,99443.84
2018-04-25T14:02:15.013Z,99440.98
2018-04-25T14:04:43.431Z,99436.62
2018-04-25T14:07:11.848Z,99434.20
2018-04-25T14:09:40.298Z,99438.66
2018-04-25T14:12:08.708Z,99439.61
2018-04-25T14:14:37.108Z,99439.20
2018-04-25T14:17:05.555Z,99440.03
2018-04-25T14:19:33.962Z,99439.52
2018-04-25T14:22:02.366Z,99450.83
2018-04-25T14:24:30.817Z,99454.33
2018-04-25T14:26:59.233Z,99452.89
2018-04-25T14:29:27.640Z,99455.90
2018-04-25T14:31:56.100Z,99459.94
2018-04-25T14:34:24.509Z,99460.78
2018-04-25T14:36:52.920Z,99450.59
2018-04-25T14:39:21.383Z,99447.70
2018-04-25T14:41:49.796Z,99445.31
2018-04-25T14:44:18.211Z,99455.59
2018-04-25T14:46:46.655Z,99464.71
2018-04-25T14:49:15.069Z,99453.48
2018-04-25T14:51:43.463Z,99458.67
2018-04-25T14:54:11.919Z,99449.56
2018-04-25T14:56:40.318Z,99446.45
2018-04-25T14:59:08.728Z,99449.02
2018-04-25T15:01:37.193Z,99445.31
2018-04-25T15:04:05.588Z,99447.50
2018-04-25T15:06:34.000Z,99463.59
2018-04-25T15:09:02.449Z,99459.00
2018-04-25T15:11:30.876Z,99455.48
2018-04-25T15:13:59.292Z,99451.64
2018-04-25T15:16:27.756Z,99457.61
2018-04-25T15:18:56.160Z,99460.66
2018-04-25T15:21:24.557Z,99459.69
2018-04-25T15:23:53.024Z,99462.97
2018-04-25T15:26:21.449Z,99465.20
2018-04-25T15:28:49.860Z,99462.69
2018-04-25T15:31:18.332Z,99457.41
2018-04-25T15:33:46.744Z,99454.38
2018-04-25T15:36:15.161Z,99466.34
2018-04-25T15:38:43.618Z,99469.77
2018-04-25T15:41:12.035Z,99474.45
2018-04-25T15:43:40.431Z,99481.73
2018-04-25T15:46:08.895Z,99485.47
2018-04-25T15:48:37.332Z,99478.92
2018-04-25T15:51:05.743Z,99465.63
2018-04-25T15:53:34.223Z,99472.98
2018-04-25T15:56:02.652Z,99477.88
2018-04-25T15:58:31.063Z,99480.80
2018-04-25T16:00:59.509Z,99468.13
2018-04-25T16:03:27.924Z,99466.05
2018-04-25T16:05:56.350Z,99464.60
2018-04-25T16:08:24.812Z,99461.92
2018-04-25T16:10:53.224Z,99465.86
2018-04-25T16:13:21.635Z,99465.55
2018-04-25T16:15:50.084Z,99473.23
2018-04-25T16:18:18.524Z,99477.19
2018-04-25T16:20:46.924Z,99474.78
2018-04-25T16:23:15.380Z,99477.58
2018-04-25T16:25:43.793Z,99473.23
2018-04-25T16:28:12.207Z,99469.27
2018-04-25T16:30:40.681Z,99476.42
2018-04-25T16:33:09.103Z,99467.41
2018-04-25T16:35:37.586Z,99464.05
2018-04-25T16:38:06.022Z,99465.23
2018-04-25T16:40:34.438Z,99464.06
2018-04-25T16:43:02.865Z,99464.27
2018-04-25T16:45:31.352Z,99457.41
2018-04-25T16:47:59.764Z,99462.06
2018-04-25T16:50:28.237Z,99462.16
2018-04-25T16:52:56.688Z,99459.97
2018-04-25T16:55:25.104Z,99459.01
2018-04-25T16:57:53.528Z,99457.34
2018-04-25T17:00:21.984Z,99451.81
2018-04-25T17:02:50.411Z,99445.72
2018-04-25T17:05:18.821Z,99436.70
2018-04-25T17:07:47.296Z,99427.89
2018-04-25T17:10:15.713Z,99423.80
2018-04-25T17:12:44.143Z,99431.53
2018-04-25T17:15:12.608Z,99435.25
2018-04-25T17:17:41.020Z,99433.03
2018-04-25T17:20:09.447Z,99439.03
2018-04-25T17:22:37.917Z,99441.25
2018-04-25T17:25:06.357Z,99432.09
2018-04-25T17:27:34.781Z,99434.17
2018-04-25T17:30:03.313Z,99439.66
2018-04-25T17:32:31.729Z,99442.53
2018-04-25T17:35:00.136Z,99449.02
2018-04-25T17:37:28.624Z,99449.91
2018-04-25T17:39:57.041Z,99451.99
2018-04-25T17:42:25.449Z,99443.41
2018-04-25T17:44:53.907Z,99443.83
2018-04-25T17:47:22.318Z,99451.36
2018-04-25T17:49:50.765Z,99450.22
2018-04-25T17:52:19.231Z,99445.23
2018-04-25T17:54:47.655Z,99454.80
2018-04-25T17:57:16.069Z,99454.26
2018-04-25T17:59:44.516Z,99462.17
2018-04-25T18:02:12.933Z,99462.53
2018-04-25T18:04:41.348Z,99456.73
2018-04-25T18:07:09.812Z,99461.25
2018-04-25T18:09:38.232Z,99466.63
2018-04-25T18:12:06.641Z,99473.36
2018-04-25T18:14:35.090Z,99469.05
2018-04-25T18:17:03.588Z,99465.57
2018-04-25T18:19:32.000Z,99468.05
2018-04-25T18:22:00.492Z,99470.14
2018-04-25T18:24:28.913Z,99465.50
2018-04-25T18:26:57.332Z,99467.72
2018-04-25T18:29:25.773Z,99458.69
2018-04-25T18:31:54.188Z,99464.45
2018-04-25T18:34:22.612Z,99458.53
2018-04-25T18:36:51.083Z,99476.30
2018-04-25T18:39:19.532Z,99469.37
2018-04-25T18:41:47.956Z,99478.78
2018-04-25T18:44:16.420Z,99486.64
2018-04-25T18:46:44.837Z,99487.98
2018-04-25T18:49:13.259Z,99485.56
2018-04-25T18:51:41.719Z,99487.98
2018-04-25T18:54:10.149Z,99487.64
2018-04-25T18:56:38.589Z,99488.02
2018-04-25T18:59:07.050Z,99495.52
2018-04-25T19:01:35.477Z,99500.09
2018-04-25T19:04:03.894Z,99507.29
2018-04-25T19:06:32.397Z,99504.32
2018-04-25T19:09:00.809Z,99504.22
2018-04-25T19:11:29.228Z,99518.06
2018-04-25T19:13:57.809Z,99524.02
2018-04-25T19:16:26.236Z,99522.43
2018-04-25T19:18:54.656Z,99523.87
2018-04-25T19:21:23.132Z,99525.12
2018-04-25T19:23:51.548Z,99541.87
2018-04-25T19:26:19.968Z,99539.63
2018-04-25T19:28:48.422Z,99549.13
2018-04-25T19:31:16.837Z,99549.22
2018-04-25T19:33:45.251Z,99551.30
2018-04-25T19:36:13.704Z,99550.41
2018-04-25T19:38:42.121Z,99553.72
2018-04-25T19:41:10.537Z,99553.72
2018-04-25T19:43:39.004Z,99562.59
2018-04-25T19:46:07.433Z,99568.99
2018-04-25T19:48:35.853Z,99564.78
2018-04-25T19:51:04.309Z,99572.48
2018-04-25T19:53:32.719Z,99574.02
2018-04-25T19:56:01.144Z,99573.15
2018-04-25T19:58:29.599Z,99577.61
2018-04-25T20:00:58.017Z,99573.73
2018-04-25T20:03:26.432Z,99570.02
2018-04-25T20:05:54.889Z,99575.59
2018-04-25T20:08:23.323Z,99581.41
2018-04-25T20:10:51.764Z,99577.88
2018-04-25T20:13:20.259Z,99567.91
2018-04-25T20:15:48.675Z,99570.77
2018-04-25T20:18:17.097Z,99571.36
2018-04-25T20:20:45.626Z,99575.41
2018-04-25T20:23:14.042Z,99575.95
2018-04-25T20:25:42.472Z,99578.55
2018-04-25T20:28:10.940Z,99580.34
2018-04-25T20:30:39.361Z,99579.44
2018-04-25T20:33:07.784Z,99577.33
2018-04-25T20:35:36.253Z,99573.17
2018-04-25T20:38:04.693Z,99574.95
2018-04-25T20:40:33.119Z,99582.85
2018-04-25T20:43:01.600Z,99582.98
2018-04-25T20:45:30.031Z,99577.57
2018-04-25T20:47:58.448Z,99583.04
2018-04-25T20:50:26.907Z,99585.48
2018-04-25T20:52:55.340Z,99586.73
2018-04-25T20:55:23.762Z,99589.20
2018-04-25T20:57:52.216Z,99594.25
2018-04-25T21:00:20.636Z,99582.97
2018-04-25T21:02:49.048Z,99582.55
2018-04-25T21:05:17.734Z,99579.43
2018-04-25T21:07:46.144Z,99584.50
2018-04-25T21:10:14.573Z,99587.43
2018-04-25T21:12:43.024Z,99570.45
2018-04-25T21:15:11.436Z,99571.39
2018-04-25T21:17:39.869Z,99571.92
2018-04-25T21:20:08.329Z,99576.77
2018-04-25T21:22:36.748Z,99574.02
2018-04-25T21:25:05.166Z,99577.20
2018-04-25T21:27:33.633Z,99580.39
2018-04-25T21:30:02.071Z,99578.30
2018-04-25T21:32:30.496Z,99581.64
2018-04-25T21:34:58.946Z,99582.75
2018-04-25T21:37:27.358Z,99579.65
2018-04-25T21:39:55.770Z,99581.75
2018-04-25T21:42:24.215Z,99582.09
2018-04-25T21:44:52.626Z,99586.45
2018-04-25T21:47:21.036Z,99586.30
2018-04-25T21:49:49.511Z,99584.68
2018-04-25T21:52:17.937Z,99591.67
2018-04-25T21:54:46.340Z,99585.16
2018-04-25T21:57:14.792Z,99583.23
2018-04-25T21:59:43.192Z,99585.98
2018-04-25T22:02:11.600Z,99590.56
2018-04-25T22:04:40.068Z,99590.22
2018-04-25T22:07:08.482Z,99587.03
2018-04-25T22:09:36.900Z,99587.88
2018-04-25T22:12:05.355Z,99584.80
2018-04-25T22:14:33.781Z,99578.66
2018-04-25T22:17:02.212Z,99571.41
2018-04-25T22:19:30.688Z,99568.09
2018-04-25T22:21:59.117Z,99573.67
2018-04-25T22:24:27.517Z,99574.77
2018-04-25T22:26:55.976Z,99574.65
2018-04-25T22:29:24.396Z,99576.78
2018-04-25T22:31:52.800Z,99577.31
2018-04-25T22:34:21.244Z,99582.25
2018-04-25T22:36:49.657Z,99586.08
2018-04-25T22:39:18.064Z,99582.94
2018-04-25T22:41:46.577Z,99581.91
2018-04-25T22:44:14.944Z,99582.02
2018-04-25T22:46:43.353Z,99585.45
2018-04-25T22:49:11.809Z,99586.38
2018-04-25T22:51:40.220Z,99589.70
2018-04-25T22:54:08.632Z,99584.41
2018-04-25T22:56:37.085Z,99588.00
2018-04-25T22:59:05.496Z,99590.58
2018-04-25T23:01:33.913Z,99584.51
2018-04-25T23:04:02.373Z,99589.75
2018-04-25T23:06:30.788Z,99584.00
2018-04-25T23:08:59.197Z,99580.23
2018-04-25T23:11:27.663Z,99582.30
2018-04-25T23:13:56.068Z,99584.05
2018-04-25T23:16:24.480Z,99582.55
2018-04-25T23:18:52.965Z,99580.63
2018-04-25T23:21:21.380Z,99581.80
2018-04-25T23:23:49.793Z,99582.03
2018-04-25T23:26:18.256Z,99581.90
2018-04-25T23:28:46.672Z,99588.58
2018-04-25T23:31:15.083Z,99588.31
2018-04-25T23:33:43.544Z,99587.97
2018-04-25T23:36:11.961Z,99584.81
2018-04-25T23:38:40.371Z,99579.64
2018-04-25T23:41:08.856Z,99580.40
2018-04-25T23:43:37.273Z,99584.75
2018-04-25T23:46:05.700Z,99585.19
2018-04-25T23:48:34.163Z,99583.20
2018-04-25T23:51:02.579Z,99573.31
2018-04-25T23:53:31.024Z,99574.43
2018-04-25T23:55:59.501Z,99579.95
2018-04-25T23:58:27.913Z,99570.59
